LNA weather

Palm Beach County Park Airport
West Palm Beach, Florida, United States

Public forecast

Using degrees Fahrenheit for public forecast. Weather courtesy of forecast.io.

METAR (pilot weather report)

Closest report is Palm Beach International Airport, 5.4 nm (10.1 km) N. Retrieved 2019/06/15 19:53 UTC (50 minutes ago):

KPBI 151953Z 11009KT 10SM SCT022 BKN055 BKN200 29/23 A3006 RMK AO2 SLP178 CB DSNT S-SW T02940233 $

TAF (pilot weather forecast)

Closest forecast is Palm Beach International Airport, 5.4 nm (10.1 km) N. Retrieved 2019/06/15 18:42 UTC (2 hours ago):

TAF KPBI 151739Z 1518/1618 10009KT P6SM VCTS SCT025CB BKN200 FM152000 12008KT P6SM SCT030 SCT060 BKN200 FM160200 15005KT P6SM SCT025 SCT250 FM161400 13010KT P6SM SCT025 SCT250 PROB30 1614/1618 3SM TSRA SCT025CB BKN050 BKN200